Time;durP1;ratioP1;P1;durP2;ratioP2;P2;SDS_P1;SDS_P2;PMS_P1;PMS_P2;Temp;Humidity;BMP_temperature;BMP_pressure;BME280_temperature;BME280_humidity;BME280_pressure;Samples;Min_cycle;Max_cycle;Signal;HPM_P1;HPM_P2
2022/07/16 00:01:31;;;;;;;0.93;0.80;;;;;;;18.80;79.84;101652.31;20961732;28;20052;-76
2022/07/16 00:11:32;;;;;;;1.00;0.75;;;;;;;18.29;79.67;101573.63;20944881;28;20040;-76
2022/07/16 00:21:34;;;;;;;1.00;0.60;;;;;;;18.36;80.00;101569.47;20962998;28;20040;-76
2022/07/16 00:31:36;;;;;;;1.25;0.80;;;;;;;18.60;80.11;101618.84;20963297;28;20078;-76
2022/07/16 00:41:39;;;;;;;1.13;0.80;;;;;;;18.68;80.18;101622.66;20931967;28;20047;-77
2022/07/16 00:51:50;;;;;;;1.35;0.70;;;;;;;18.79;80.25;101645.19;20959496;28;20452;-76
2022/07/16 01:01:51;;;;;;;0.70;0.63;;;;;;;18.79;80.30;101631.72;20960045;28;20110;-76
2022/07/16 01:11:53;;;;;;;1.00;0.75;;;;;;;18.70;80.30;101609.03;20973726;28;20052;-76
2022/07/16 01:21:55;;;;;;;0.63;0.63;;;;;;;18.33;80.28;101556.25;20974874;28;20049;-76
2022/07/16 01:31:56;;;;;;;1.38;0.80;;;;;;;18.56;80.41;101591.28;20975055;28;20083;-76
2022/07/16 01:42:02;;;;;;;0.80;0.70;;;;;;;18.68;80.70;101633.44;20957295;28;20051;-76
2022/07/16 01:52:15;;;;;;;1.30;1.03;;;;;;;18.77;80.66;101660.66;20955184;28;20131;-76
2022/07/16 02:02:17;;;;;;;0.75;0.75;;;;;;;18.66;81.07;101640.78;20971957;28;20049;-76
2022/07/16 02:12:18;;;;;;;0.70;0.70;;;;;;;18.68;81.21;101649.63;20971457;28;20094;-76
2022/07/16 02:22:20;;;;;;;1.10;0.90;;;;;;;18.77;81.57;101669.56;20968116;28;20048;-76
2022/07/16 02:32:22;;;;;;;1.08;0.70;;;;;;;18.77;81.55;101663.34;20968601;28;20147;-76
2022/07/16 02:42:23;;;;;;;0.68;0.68;;;;;;;18.77;81.83;101666.03;20958923;28;20057;-76
2022/07/16 02:52:25;;;;;;;0.90;0.57;;;;;;;18.67;82.12;101664.09;20968698;28;20080;-76
2022/07/16 03:02:27;;;;;;;0.65;0.65;;;;;;;18.76;82.26;101688.59;20941923;28;20374;-76
2022/07/16 03:12:28;;;;;;;0.60;0.60;;;;;;;18.76;82.55;101699.38;20873770;28;20044;-76
2022/07/16 03:22:30;;;;;;;1.48;0.77;;;;;;;18.70;82.88;101696.22;20860313;28;20045;-77
2022/07/16 03:32:32;;;;;;;0.88;0.68;;;;;;;18.75;83.21;101708.47;20867469;28;20417;-76
2022/07/16 03:42:33;;;;;;;1.33;0.68;;;;;;;18.62;83.41;101690.56;20860329;28;20094;-76
2022/07/16 03:52:36;;;;;;;1.63;0.80;;;;;;;18.73;83.73;101727.44;20840135;28;20045;-76
2022/07/16 04:02:38;;;;;;;2.05;0.80;;;;;;;18.54;83.76;101701.09;20797677;28;20091;-77
2022/07/16 04:12:40;;;;;;;0.93;0.73;;;;;;;18.74;83.91;101739.97;20793445;28;20045;-76
2022/07/16 04:22:41;;;;;;;1.33;0.80;;;;;;;18.73;83.98;101749.03;20796988;28;20133;-76
2022/07/16 04:32:43;;;;;;;2.58;0.75;;;;;;;18.65;83.95;101756.88;20827554;28;20129;-77
2022/07/16 04:42:44;;;;;;;3.40;0.90;;;;;;;18.55;84.10;101745.94;20868770;28;20059;-76
2022/07/16 04:52:46;;;;;;;0.75;0.70;;;;;;;18.75;84.31;101778.59;20895028;28;20410;-76
2022/07/16 05:02:57;;;;;;;1.25;1.08;;;;;;;18.75;84.03;101786.69;20895106;28;20065;-77
2022/07/16 05:13:00;;;;;;;0.70;0.70;;;;;;;18.76;84.07;101796.50;20894045;28;20516;-76
2022/07/16 05:23:01;;;;;;;1.27;0.88;;;;;;;18.70;83.99;101804.09;20875853;28;20057;-76
2022/07/16 05:33:03;;;;;;;0.85;0.68;;;;;;;18.76;84.03;101834.25;20892394;28;20140;-76
2022/07/16 05:43:06;;;;;;;0.68;0.63;;;;;;;18.76;84.18;101845.06;20889962;28;20477;-76
2022/07/16 05:53:07;;;;;;;1.15;0.70;;;;;;;18.76;84.17;101845.06;20890186;28;20053;-76
2022/07/16 06:03:09;;;;;;;1.02;0.90;;;;;;;18.76;84.14;101858.53;20888251;28;20053;-76
2022/07/16 06:13:11;;;;;;;1.23;0.63;;;;;;;18.75;84.02;101857.66;20889597;28;20421;-76
2022/07/16 06:23:12;;;;;;;1.20;0.80;;;;;;;18.76;83.95;101866.63;20888114;28;20055;-76
2022/07/16 06:33:14;;;;;;;0.55;0.55;;;;;;;18.75;83.84;101890.03;20886227;28;20048;-76
2022/07/16 06:43:16;;;;;;;0.77;0.70;;;;;;;18.59;83.62;101871.50;20886442;28;20562;-76
2022/07/16 06:53:19;;;;;;;1.67;0.80;;;;;;;18.75;83.26;101913.47;20884449;28;20044;-76
2022/07/16 07:03:20;;;;;;;2.08;0.88;;;;;;;18.62;82.99;101900.94;20883484;28;20040;-77
2022/07/16 07:13:22;;;;;;;0.73;0.70;;;;;;;18.77;82.48;101938.50;20884344;28;20501;-77
2022/07/16 07:23:24;;;;;;;1.17;0.50;;;;;;;18.77;82.77;101946.59;20881142;28;20140;-77
2022/07/16 07:33:25;;;;;;;2.10;0.70;;;;;;;18.83;82.52;101959.59;20871097;28;20056;-76
2022/07/16 07:43:27;;;;;;;1.73;0.70;;;;;;;18.73;82.14;101947.78;20873678;28;20053;-77
2022/07/16 07:53:28;;;;;;;0.98;0.70;;;;;;;18.81;81.42;101962.44;20871308;28;20053;-76
2022/07/16 08:03:30;;;;;;;1.73;0.70;;;;;;;18.85;80.93;101984.63;20880075;28;20053;-77
2022/07/16 08:13:33;;;;;;;1.77;0.63;;;;;;;18.94;79.92;102005.50;20876759;28;20564;-77
2022/07/16 08:33:54;;;;;;;0.85;0.65;;;;;;;19.03;79.28;102027.44;20890409;28;20555;-77
2022/07/16 08:43:56;;;;;;;1.63;0.60;;;;;;;18.85;78.60;102006.22;20878909;28;20074;-77
2022/07/16 08:54:20;;;;;;;1.05;0.60;;;;;;;19.03;78.44;102041.78;20847024;28;20051;-76
2022/07/16 09:04:22;;;;;;;0.80;0.60;;;;;;;19.07;78.00;102053.22;20855285;28;20048;-75
2022/07/16 09:14:24;;;;;;;1.88;0.50;;;;;;;19.09;77.29;102056.66;20846095;28;20057;-76
2022/07/16 09:24:35;;;;;;;2.10;0.60;;;;;;;19.09;77.11;102072.84;20849024;28;20055;-75
2022/07/16 09:34:37;;;;;;;1.23;0.60;;;;;;;19.10;76.48;102074.56;20785918;28;20445;-76
2022/07/16 09:44:42;;;;;;;1.77;0.57;;;;;;;19.08;76.40;102090.88;20869927;28;20052;-76
2022/07/16 09:54:44;;;;;;;0.70;0.40;;;;;;;19.06;76.36;102103.63;20855692;28;20048;-75
2022/07/16 10:04:45;;;;;;;0.73;0.40;;;;;;;19.04;76.07;102118.22;20852598;28;20080;-75
2022/07/16 10:14:50;;;;;;;1.27;0.40;;;;;;;18.95;76.26;102120.56;20853336;28;20053;-76
2022/07/16 10:24:56;;;;;;;1.15;0.40;;;;;;;18.98;75.75;102123.06;20852111;28;20053;-75
2022/07/16 10:35:00;;;;;;;0.88;0.50;;;;;;;19.01;75.72;102123.84;20856724;28;20132;-76
2022/07/16 10:45:02;;;;;;;0.63;0.50;;;;;;;18.87;75.94;102127.53;20801937;28;20049;-77
2022/07/16 10:55:05;;;;;;;1.75;0.50;;;;;;;19.02;75.48;102150.69;20830435;28;20049;-78
2022/07/16 11:05:07;;;;;;;1.33;0.60;;;;;;;18.98;75.25;102152.75;20818866;28;20045;-76
2022/07/16 11:15:11;;;;;;;1.08;0.40;;;;;;;18.98;74.81;102150.06;20778790;28;20057;-77
2022/07/16 11:25:13;;;;;;;1.38;0.60;;;;;;;18.96;74.55;102151.13;20814725;28;20041;-76
2022/07/16 11:35:15;;;;;;;1.48;0.40;;;;;;;19.02;75.04;102166.06;20853886;28;20053;-77
2022/07/16 11:45:16;;;;;;;1.83;0.60;;;;;;;18.86;76.04;102156.31;20866244;28;20401;-77
2022/07/16 11:55:20;;;;;;;1.63;0.80;;;;;;;19.09;75.76;102180.81;20804620;28;20053;-76
2022/07/16 12:05:29;;;;;;;1.23;0.80;;;;;;;18.93;76.55;102160.28;20803444;28;20049;-76
2022/07/16 12:15:51;;;;;;;0.88;0.43;;;;;;;19.14;76.74;102197.53;20777163;28;20046;-77
2022/07/16 12:26:00;;;;;;;2.05;0.50;;;;;;;18.95;76.46;102163.75;20822172;28;20049;-77
2022/07/16 12:36:06;;;;;;;0.50;0.30;;;;;;;19.04;76.25;102177.59;20772572;28;20127;-76
2022/07/16 12:46:09;;;;;;;2.05;0.70;;;;;;;19.18;76.26;102206.25;20858404;28;20041;-76
2022/07/16 13:06:31;;;;;;;1.55;0.57;;;;;;;19.20;76.08;102215.97;20890493;28;20136;-76
2022/07/16 13:16:34;;;;;;;1.02;0.47;;;;;;;19.22;75.92;102222.13;20894860;28;20048;-76
2022/07/16 13:26:36;;;;;;;1.38;0.70;;;;;;;19.19;75.83;102203.44;20944212;28;20048;-76
2022/07/16 13:36:58;;;;;;;2.15;0.68;;;;;;;19.22;75.60;102208.63;20975214;28;20052;-76
2022/07/16 13:46:59;;;;;;;2.40;0.70;;;;;;;19.22;75.49;102219.41;20955692;28;20048;-76
2022/07/16 14:07:21;;;;;;;1.17;0.47;;;;;;;19.24;74.91;102246.31;20972768;28;20131;-76
2022/07/16 14:17:24;;;;;;;1.65;0.40;;;;;;;19.25;74.26;102248.88;20959430;28;20409;-76
2022/07/16 14:27:25;;;;;;;1.15;0.52;;;;;;;19.25;74.09;102245.34;20965610;28;20135;-76
2022/07/16 14:37:28;;;;;;;1.65;0.68;;;;;;;19.25;73.91;102254.28;20970668;28;20048;-76
2022/07/16 14:47:30;;;;;;;2.03;0.57;;;;;;;19.14;73.38;102232.63;20969562;28;20131;-76
2022/07/16 14:57:33;;;;;;;1.38;0.55;;;;;;;19.26;73.36;102247.06;20943723;28;20128;-76
2022/07/16 15:07:35;;;;;;;0.98;0.50;;;;;;;19.16;72.83;102240.59;20874003;28;20052;-77
2022/07/16 15:17:37;;;;;;;2.30;0.70;;;;;;;19.11;72.95;102222.91;20864455;28;21209;-77
2022/07/16 15:27:39;;;;;;;2.42;0.82;;;;;;;19.12;72.71;102218.38;20860128;28;20485;-76
2022/07/16 15:37:41;;;;;;;3.17;0.80;;;;;;;19.31;72.90;102244.00;20857344;28;20128;-76
2022/07/16 15:47:43;;;;;;;3.67;0.93;;;;;;;19.31;73.41;102254.81;20862049;28;20484;-77
2022/07/16 15:57:44;;;;;;;5.38;1.63;;;;;;;19.34;74.69;102259.97;20836469;28;20394;-77
2022/07/16 16:07:46;;;;;;;6.00;1.00;;;;;;;19.37;75.81;102255.22;20787626;28;20056;-77
2022/07/16 16:17:47;;;;;;;31.50;14.02;;;;;;;19.18;77.14;102212.53;20854645;28;20053;-77
2022/07/16 16:27:49;;;;;;;31.35;11.00;;;;;;;19.41;77.92;102263.94;20852361;28;20136;-77
2022/07/16 16:37:51;;;;;;;21.45;8.27;;;;;;;19.43;77.78;102270.09;20853346;28;20413;-77
2022/07/16 16:47:52;;;;;;;25.73;8.30;;;;;;;19.27;77.14;102257.72;20812549;28;20057;-76
2022/07/16 16:57:55;;;;;;;16.35;7.25;;;;;;;19.39;77.17;102268.59;20873222;28;20128;-76
2022/07/16 17:07:56;;;;;;;16.27;6.50;;;;;;;19.19;77.00;102249.34;20866028;28;20061;-76
2022/07/16 17:17:58;;;;;;;15.35;5.95;;;;;;;19.38;76.95;102274.97;20865429;28;20051;-76
2022/07/16 17:28:00;;;;;;;14.80;5.28;;;;;;;19.35;77.00;102280.59;20865290;28;20048;-77
2022/07/16 17:38:01;;;;;;;14.82;5.38;;;;;;;19.37;77.11;102298.44;20864010;28;20075;-76
2022/07/16 17:48:03;;;;;;;14.27;5.13;;;;;;;19.36;76.71;102309.34;20825683;28;20058;-76
2022/07/16 17:58:06;;;;;;;12.65;4.80;;;;;;;19.34;76.48;102313.97;20860263;28;20053;-75
2022/07/16 18:08:07;;;;;;;11.52;4.00;;;;;;;19.31;76.04;102325.00;20870323;28;20053;-76
2022/07/16 18:18:09;;;;;;;9.80;3.08;;;;;;;19.27;75.91;102337.88;20875893;28;20096;-76
2022/07/16 18:28:10;;;;;;;12.50;3.70;;;;;;;19.16;77.06;102325.16;20847920;28;20046;-75
2022/07/16 18:38:12;;;;;;;16.83;3.35;;;;;;;19.26;77.70;102344.25;20802600;28;20045;-75
2022/07/16 18:48:13;;;;;;;7.95;3.38;;;;;;;19.16;77.90;102326.97;20804484;28;20127;-77
2022/07/16 18:58:15;;;;;;;7.40;2.35;;;;;;;19.21;77.54;102341.00;20804879;28;20092;-75
2022/07/16 19:08:17;;;;;;;8.35;2.75;;;;;;;19.19;77.35;102342.94;20805063;28;20056;-75
2022/07/16 19:18:18;;;;;;;6.90;2.47;;;;;;;19.13;76.99;102355.06;20900152;28;20406;-75
2022/07/16 19:28:20;;;;;;;7.50;2.20;;;;;;;19.16;76.71;102351.28;20882625;28;20567;-75
2022/07/16 19:38:22;;;;;;;7.10;2.33;;;;;;;19.14;76.37;102367.59;20883398;28;20049;-75
2022/07/16 19:48:24;;;;;;;4.43;1.98;;;;;;;18.92;75.98;102344.78;20874018;28;20053;-75
2022/07/16 19:58:25;;;;;;;6.40;2.40;;;;;;;19.11;75.91;102392.09;20877272;28;20052;-74
2022/07/16 20:08:27;;;;;;;4.30;1.50;;;;;;;19.10;75.80;102398.47;20919604;28;20567;-75
2022/07/16 20:18:29;;;;;;;4.93;1.92;;;;;;;19.08;75.52;102386.94;20881723;28;20079;-75
2022/07/16 20:28:30;;;;;;;3.75;1.60;;;;;;;19.07;75.76;102398.69;20880862;28;20053;-75
2022/07/16 20:38:38;;;;;;;3.53;1.67;;;;;;;19.05;75.48;102396.09;20880811;28;20436;-75
2022/07/16 20:48:39;;;;;;;3.88;2.10;;;;;;;19.05;75.19;102406.88;20879106;28;20041;-75
2022/07/16 20:58:43;;;;;;;3.85;1.70;;;;;;;19.03;75.33;102410.69;20879449;28;20045;-75
2022/07/16 21:08:45;;;;;;;3.35;1.30;;;;;;;19.03;74.99;102408.81;20872344;28;20049;-75
2022/07/16 21:18:46;;;;;;;3.15;1.17;;;;;;;18.98;74.74;102408.28;20865169;28;20080;-75
2022/07/16 21:28:48;;;;;;;2.78;1.23;;;;;;;18.89;74.71;102400.81;20872554;28;20476;-75
2022/07/16 21:38:50;;;;;;;3.05;1.60;;;;;;;18.90;74.47;102406.06;20891939;28;20048;-75
2022/07/16 21:48:52;;;;;;;2.70;1.10;;;;;;;18.98;74.49;102422.63;20891005;28;20553;-75
2022/07/16 21:58:53;;;;;;;2.63;1.10;;;;;;;18.93;74.28;102413.97;20808862;28;20045;-75
2022/07/16 22:08:55;;;;;;;2.17;1.00;;;;;;;18.95;74.12;102417.41;20861906;28;20127;-75
2022/07/16 22:29:17;;;;;;;1.60;1.00;;;;;;;18.93;74.21;102430.16;20890620;28;20053;-75
2022/07/16 22:39:19;;;;;;;2.85;0.98;;;;;;;18.94;74.03;102431.03;20892455;28;20123;-75
2022/07/16 22:49:21;;;;;;;1.85;0.80;;;;;;;18.91;73.88;102432.09;20886114;28;20138;-75
2022/07/16 22:59:22;;;;;;;4.97;1.10;;;;;;;18.91;73.70;102442.03;20886812;28;20057;-75
2022/07/16 23:09:24;;;;;;;1.63;0.82;;;;;;;18.39;73.53;102356.47;20881229;28;20091;-75
2022/07/16 23:19:25;;;;;;;1.10;1.00;;;;;;;18.83;73.56;102429.06;20883979;28;20049;-75
2022/07/16 23:29:27;;;;;;;1.95;0.85;;;;;;;18.88;73.42;102439.56;20884033;28;20501;-75
2022/07/16 23:39:29;;;;;;;2.63;1.15;;;;;;;18.87;73.27;102435.97;20882770;28;20048;-76
2022/07/16 23:49:30;;;;;;;1.58;0.80;;;;;;;18.86;73.33;102445.03;20865443;28;20042;-76
2022/07/16 23:59:32;;;;;;;2.05;1.02;;;;;;;18.85;73.09;102446.00;20800492;28;20061;-75
